createdAt,value
2019-02-16T00:00:15.405Z,99376.71
2019-02-16T00:02:51.363Z,99376.84
2019-02-16T00:05:25.080Z,99380.30
2019-02-16T00:07:58.040Z,99379.45
2019-02-16T00:10:31.101Z,99385.45
2019-02-16T00:13:03.001Z,99383.81
2019-02-16T00:15:34.837Z,99382.55
2019-02-16T00:18:06.688Z,99376.97
2019-02-16T00:20:40.726Z,99373.10
2019-02-16T00:23:12.596Z,99372.72
2019-02-16T00:25:44.410Z,99368.81
2019-02-16T00:28:16.288Z,99377.84
2019-02-16T00:30:54.862Z,99372.69
2019-02-16T00:33:29.654Z,99368.95
2019-02-16T00:36:03.569Z,99368.17
2019-02-16T00:38:35.426Z,99370.36
2019-02-16T00:41:08.586Z,99372.55
2019-02-16T00:43:40.427Z,99357.92
2019-02-16T00:46:12.308Z,99363.20
2019-02-16T00:48:46.866Z,99362.81
2019-02-16T00:51:18.725Z,99360.23
2019-02-16T00:53:50.575Z,99358.50
2019-02-16T00:56:25.451Z,99359.49
2019-02-16T00:58:57.333Z,99354.40
2019-02-16T01:01:31.738Z,99352.72
2019-02-16T01:04:05.629Z,99349.40
2019-02-16T01:06:43.948Z,99351.14
2019-02-16T01:09:15.844Z,99354.97
2019-02-16T01:11:48.977Z,99354.65
2019-02-16T01:14:23.515Z,99353.75
2019-02-16T01:16:55.370Z,99343.63
2019-02-16T01:19:31.132Z,99347.55
2019-02-16T01:22:05.992Z,99347.61
2019-02-16T01:24:37.843Z,99342.84
2019-02-16T01:27:11.754Z,99342.88
2019-02-16T01:29:43.573Z,99343.31
2019-02-16T01:32:17.150Z,99336.97
2019-02-16T01:34:48.979Z,99336.64
2019-02-16T01:37:21.170Z,99333.22
2019-02-16T01:39:58.574Z,99338.85
2019-02-16T01:42:32.260Z,99327.20
2019-02-16T01:45:04.176Z,99328.66
2019-02-16T01:47:36.016Z,99326.06
2019-02-16T01:50:09.280Z,99320.96
2019-02-16T01:52:53.536Z,99322.73
2019-02-16T01:55:25.396Z,99324.89
2019-02-16T01:57:57.223Z,99317.73
2019-02-16T02:00:34.195Z,99323.74
2019-02-16T02:03:10.210Z,99320.36
2019-02-16T02:05:43.474Z,99314.03
2019-02-16T02:08:15.491Z,99316.19
2019-02-16T02:10:52.564Z,99316.64
2019-02-16T02:13:24.422Z,99318.41
2019-02-16T02:15:56.277Z,99315.37
2019-02-16T02:18:28.110Z,99308.58
2019-02-16T02:20:59.935Z,99306.90
2019-02-16T02:23:31.762Z,99311.23
2019-02-16T02:26:06.666Z,99300.15
2019-02-16T02:28:38.487Z,99310.05
2019-02-16T02:31:10.264Z,99307.15
2019-02-16T02:33:42.125Z,99307.06
2019-02-16T02:36:16.262Z,99301.91
2019-02-16T02:38:49.877Z,99292.87
2019-02-16T02:41:21.652Z,99299.78
2019-02-16T02:43:56.410Z,99304.12
2019-02-16T02:46:28.182Z,99305.41
2019-02-16T02:49:00.015Z,99302.45
2019-02-16T02:51:31.842Z,99300.29
2019-02-16T02:54:03.849Z,99301.60
2019-02-16T02:56:35.755Z,99295.59
2019-02-16T02:59:09.638Z,99292.63
2019-02-16T03:01:41.456Z,99293.47
2019-02-16T03:04:13.523Z,99289.96
2019-02-16T03:06:45.319Z,99296.06
2019-02-16T03:09:17.178Z,99299.42
2019-02-16T03:11:49.008Z,99294.30
2019-02-16T03:14:22.144Z,99292.64
2019-02-16T03:16:53.959Z,99293.09
2019-02-16T03:19:26.375Z,99290.10
2019-02-16T03:22:02.704Z,99296.15
2019-02-16T03:24:31.765Z,99300.87
2019-02-16T03:27:34.316Z,99304.73
2019-02-16T03:31:14.150Z,99305.58
2019-02-16T03:34:05.296Z,99305.59
2019-02-16T03:37:51.470Z,99308.68
2019-02-16T03:40:24.700Z,99311.28
2019-02-16T03:42:56.567Z,99311.36
2019-02-16T03:45:30.826Z,99305.34
2019-02-16T03:48:02.706Z,99313.51
2019-02-16T03:50:34.537Z,99320.52
2019-02-16T03:53:06.380Z,99323.06
2019-02-16T03:55:38.252Z,99328.23
2019-02-16T03:58:12.113Z,99323.98
2019-02-16T04:00:43.597Z,99322.28
2019-02-16T04:03:18.722Z,99321.41
2019-02-16T04:05:50.541Z,99318.39
2019-02-16T04:08:22.598Z,99321.45
2019-02-16T04:10:54.422Z,99324.51
2019-02-16T04:13:26.273Z,99323.84
2019-02-16T04:15:59.243Z,99328.61
2019-02-16T04:18:31.060Z,99324.21
2019-02-16T04:21:02.929Z,99325.91
2019-02-16T04:23:34.748Z,99327.25
2019-02-16T04:26:09.556Z,99325.94
2019-02-16T04:28:41.406Z,99320.80
2019-02-16T04:31:13.245Z,99318.77
2019-02-16T04:33:45.116Z,99314.09
2019-02-16T04:36:19.466Z,99312.34
2019-02-16T04:38:51.271Z,99305.06
2019-02-16T04:41:23.139Z,99310.14
2019-02-16T04:43:54.971Z,99317.48
2019-02-16T04:46:27.801Z,99311.12
2019-02-16T04:48:59.608Z,99314.05
2019-02-16T04:51:32.538Z,99314.00
2019-02-16T04:54:04.374Z,99320.03
2019-02-16T04:56:37.206Z,99316.62
2019-02-16T04:59:09.055Z,99321.29
2019-02-16T05:01:40.893Z,99320.00
2019-02-16T05:04:12.712Z,99326.86
2019-02-16T05:06:44.537Z,99332.94
2019-02-16T05:09:16.353Z,99330.41
2019-02-16T05:11:48.651Z,99335.91
2019-02-16T05:14:20.477Z,99332.54
2019-02-16T05:16:52.317Z,99332.20
2019-02-16T05:19:24.131Z,99330.58
2019-02-16T05:21:55.965Z,99325.52
2019-02-16T05:24:27.783Z,99325.31
2019-02-16T05:26:59.733Z,99326.30
2019-02-16T05:29:31.522Z,99327.55
2019-02-16T05:32:03.363Z,99327.44
2019-02-16T05:34:35.259Z,99333.86
2019-02-16T05:37:10.067Z,99334.70
2019-02-16T05:39:41.886Z,99333.42
2019-02-16T05:42:13.740Z,99337.70
2019-02-16T05:44:45.561Z,99337.72
2019-02-16T05:47:17.399Z,99343.72
2019-02-16T05:49:49.226Z,99343.70
2019-02-16T05:52:21.113Z,99339.45
2019-02-16T05:54:52.999Z,99339.03
2019-02-16T05:57:25.933Z,99332.64
2019-02-16T05:59:57.750Z,99334.81
2019-02-16T06:02:32.555Z,99327.55
2019-02-16T06:05:06.772Z,99330.20
2019-02-16T06:07:38.616Z,99331.50
2019-02-16T06:10:12.237Z,99335.81
2019-02-16T06:12:44.090Z,99333.28
2019-02-16T06:15:15.948Z,99332.81
2019-02-16T06:17:47.810Z,99332.41
2019-02-16T06:20:19.655Z,99333.28
2019-02-16T06:22:51.485Z,99332.05
2019-02-16T06:25:23.346Z,99341.89
2019-02-16T06:27:55.188Z,99338.94
2019-02-16T06:30:27.042Z,99344.92
2019-02-16T06:32:58.860Z,99339.77
2019-02-16T06:35:49.588Z,99350.45
2019-02-16T06:38:21.468Z,99356.47
2019-02-16T06:40:53.315Z,99350.84
2019-02-16T06:43:25.209Z,99345.75
2019-02-16T06:45:57.072Z,99356.03
2019-02-16T06:48:28.905Z,99350.89
2019-02-16T06:51:00.750Z,99358.09
2019-02-16T06:53:32.992Z,99359.72
2019-02-16T06:56:19.134Z,99354.41
2019-02-16T06:58:51.001Z,99359.64
2019-02-16T07:01:22.967Z,99362.78
2019-02-16T07:03:54.806Z,99362.77
2019-02-16T07:06:28.560Z,99364.58
2019-02-16T07:09:00.413Z,99369.44
2019-02-16T07:11:32.259Z,99366.53
2019-02-16T07:14:04.110Z,99364.92
2019-02-16T07:17:00.694Z,99364.62
2019-02-16T07:19:36.046Z,99376.05
2019-02-16T07:22:07.869Z,99377.36
2019-02-16T07:24:39.695Z,99377.84
2019-02-16T07:27:12.624Z,99374.58
2019-02-16T07:29:44.450Z,99379.41
2019-02-16T07:32:16.321Z,99377.78
2019-02-16T07:34:48.141Z,99372.75
2019-02-16T07:37:19.969Z,99365.24
2019-02-16T07:39:51.802Z,99371.44
2019-02-16T07:42:25.235Z,99363.36
2019-02-16T07:45:10.039Z,99366.63
2019-02-16T07:48:09.012Z,99368.14
2019-02-16T07:50:48.009Z,99366.72
2019-02-16T07:53:37.428Z,99369.03
2019-02-16T07:56:31.227Z,99374.33
2019-02-16T07:59:21.641Z,99369.37
2019-02-16T08:02:13.871Z,99370.04
2019-02-16T08:04:52.802Z,99376.17
2019-02-16T08:07:33.029Z,99377.64
2019-02-16T08:10:16.918Z,99377.76
2019-02-16T08:13:06.316Z,99376.02
2019-02-16T08:15:58.977Z,99380.27
2019-02-16T08:18:45.671Z,99380.05
2019-02-16T08:21:35.099Z,99386.61
2019-02-16T08:24:28.389Z,99376.84
2019-02-16T08:27:17.634Z,99378.81
2019-02-16T08:30:08.778Z,99376.58
2019-02-16T08:32:55.811Z,99382.39
2019-02-16T08:35:46.641Z,99374.42
2019-02-16T08:38:35.802Z,99381.48
2019-02-16T08:41:45.203Z,99375.69
2019-02-16T08:44:48.042Z,99376.05
2019-02-16T08:47:34.835Z,99379.97
2019-02-16T08:50:35.826Z,99380.25
2019-02-16T08:53:19.602Z,99373.20
2019-02-16T08:56:29.308Z,99367.73
2019-02-16T08:59:13.768Z,99368.26
2019-02-16T09:02:07.042Z,99368.20
2019-02-16T09:05:09.524Z,99359.22
2019-02-16T09:07:47.459Z,99363.81
2019-02-16T09:10:37.752Z,99360.99
2019-02-16T09:13:18.732Z,99352.20
2019-02-16T09:16:08.073Z,99352.42
2019-02-16T09:19:07.488Z,99349.73
2019-02-16T09:21:57.926Z,99348.16
2019-02-16T09:24:44.646Z,99354.23
2019-02-16T09:27:33.392Z,99355.69
2019-02-16T09:30:27.635Z,99358.27
2019-02-16T09:33:28.189Z,99346.29
2019-02-16T09:36:30.991Z,99349.33
2019-02-16T09:39:27.540Z,99348.89
2019-02-16T09:42:18.007Z,99352.21
2019-02-16T09:45:03.676Z,99354.33
2019-02-16T09:47:55.211Z,99354.34
2019-02-16T09:50:54.842Z,99353.51
2019-02-16T09:53:36.328Z,99356.22
2019-02-16T09:56:45.136Z,99358.38
2019-02-16T09:59:26.251Z,99352.95
2019-02-16T10:02:19.458Z,99350.06
2019-02-16T10:05:25.390Z,99354.25
2019-02-16T10:08:14.058Z,99355.51
2019-02-16T10:11:04.541Z,99351.31
2019-02-16T10:13:50.323Z,99351.34
2019-02-16T10:16:58.922Z,99354.61
2019-02-16T10:19:36.949Z,99356.81
2019-02-16T10:22:36.436Z,99360.83
2019-02-16T10:25:29.968Z,99363.59
2019-02-16T10:28:11.986Z,99354.82
2019-02-16T10:31:00.744Z,99358.95
2019-02-16T10:33:45.658Z,99357.92
2019-02-16T10:36:36.117Z,99359.49
2019-02-16T10:39:32.654Z,99357.99
2019-02-16T10:42:35.253Z,99357.61
2019-02-16T10:45:33.194Z,99361.66
2019-02-16T10:48:31.598Z,99355.05
2019-02-16T10:51:24.584Z,99361.14
2019-02-16T10:54:28.098Z,99357.90
2019-02-16T10:57:17.161Z,99351.83
2019-02-16T11:00:10.415Z,99349.38
2019-02-16T11:02:54.992Z,99343.02
2019-02-16T11:05:42.857Z,99335.25
2019-02-16T11:08:24.562Z,99327.36
2019-02-16T11:11:15.315Z,99330.56
2019-02-16T11:14:11.651Z,99325.13
2019-02-16T11:17:09.605Z,99318.09
2019-02-16T11:20:01.211Z,99326.73
2019-02-16T11:23:13.511Z,99311.81
2019-02-16T11:26:03.977Z,99317.98
2019-02-16T11:28:49.708Z,99314.69
2019-02-16T11:31:49.204Z,99308.41
2019-02-16T11:34:37.197Z,99310.36
2019-02-16T11:37:14.006Z,99305.02
2019-02-16T11:40:07.701Z,99305.11
2019-02-16T11:42:55.596Z,99310.90
2019-02-16T11:45:58.393Z,99302.73
2019-02-16T11:48:39.072Z,99298.69
2019-02-16T11:51:30.556Z,99298.28
2019-02-16T11:54:14.266Z,99297.13
2019-02-16T11:57:13.082Z,99291.54
2019-02-16T11:59:57.848Z,99299.41
2019-02-16T12:02:42.376Z,99288.73
2019-02-16T12:05:41.937Z,99290.33
2019-02-16T12:08:24.495Z,99282.25
2019-02-16T12:11:17.722Z,99276.42
2019-02-16T12:13:57.722Z,99274.25
2019-02-16T12:16:39.368Z,99270.95
2019-02-16T12:19:35.660Z,99272.97
2019-02-16T12:22:35.410Z,99271.25
2019-02-16T12:25:41.169Z,99265.59
2019-02-16T12:28:32.997Z,99264.17
2019-02-16T12:31:27.018Z,99257.95
2019-02-16T12:34:11.354Z,99253.70
2019-02-16T12:37:17.231Z,99253.57
2019-02-16T12:39:56.527Z,99246.41
2019-02-16T12:42:47.934Z,99243.38
2019-02-16T12:45:37.451Z,99243.55
2019-02-16T12:48:27.948Z,99237.63
2019-02-16T12:51:06.812Z,99237.31
2019-02-16T12:54:06.424Z,99239.73
2019-02-16T12:56:54.299Z,99229.94
2019-02-16T12:59:49.923Z,99231.05
2019-02-16T13:02:33.279Z,99222.50
2019-02-16T13:05:33.095Z,99218.13
2019-02-16T13:08:20.643Z,99212.89
2019-02-16T13:10:59.485Z,99210.53
2019-02-16T13:13:51.992Z,99212.95
2019-02-16T13:16:48.998Z,99205.33
2019-02-16T13:19:45.238Z,99203.20
2019-02-16T13:22:40.265Z,99200.25
2019-02-16T13:25:36.673Z,99208.16
2019-02-16T13:28:32.911Z,99205.31
2019-02-16T13:31:25.207Z,99196.16
2019-02-16T13:34:17.386Z,99198.47
2019-02-16T13:37:13.917Z,99195.61
2019-02-16T13:40:07.585Z,99188.33
2019-02-16T13:43:02.875Z,99188.97
2019-02-16T13:45:59.743Z,99183.72
2019-02-16T13:48:42.525Z,99183.66
2019-02-16T13:51:28.571Z,99181.25
2019-02-16T13:54:18.853Z,99190.35
2019-02-16T13:57:08.143Z,99185.47
2019-02-16T14:00:01.665Z,99188.92
2019-02-16T14:03:02.555Z,99184.76
2019-02-16T14:05:50.725Z,99178.55
2019-02-16T14:08:55.810Z,99178.70
2019-02-16T14:11:58.354Z,99170.20
2019-02-16T14:14:38.484Z,99173.59
2019-02-16T14:17:31.612Z,99171.70
2019-02-16T14:20:03.599Z,99166.06
2019-02-16T14:22:35.175Z,99169.07
2019-02-16T14:25:09.538Z,99162.48
2019-02-16T14:27:41.112Z,99161.52
2019-02-16T14:30:13.406Z,99159.74
2019-02-16T14:32:48.075Z,99161.41
2019-02-16T14:35:20.816Z,99155.68
2019-02-16T14:38:06.430Z,99159.41
2019-02-16T14:40:41.243Z,99156.17
2019-02-16T14:43:15.504Z,99160.12
2019-02-16T14:45:50.112Z,99152.59
2019-02-16T14:48:21.715Z,99148.64
2019-02-16T14:50:53.324Z,99151.28
2019-02-16T14:53:24.943Z,99149.96
2019-02-16T14:55:56.608Z,99150.41
2019-02-16T14:58:28.193Z,99148.27
2019-02-16T15:00:59.838Z,99146.13
2019-02-16T15:03:32.720Z,99144.06
2019-02-16T15:06:07.369Z,99145.38
2019-02-16T15:08:40.224Z,99143.72
2019-02-16T15:11:13.330Z,99142.63
2019-02-16T15:13:45.209Z,99135.19
2019-02-16T15:16:18.005Z,99131.84
2019-02-16T15:18:49.630Z,99135.04
2019-02-16T15:21:24.132Z,99138.23
2019-02-16T15:23:58.602Z,99134.52
2019-02-16T15:26:32.461Z,99137.86
2019-02-16T15:29:04.099Z,99130.79
2019-02-16T15:31:35.693Z,99131.13
2019-02-16T15:34:09.651Z,99127.52
2019-02-16T15:36:44.575Z,99128.79
2019-02-16T15:39:16.199Z,99128.08
2019-02-16T15:41:48.148Z,99129.61
2019-02-16T15:44:22.841Z,99126.50
2019-02-16T15:46:58.479Z,99124.69
2019-02-16T15:49:30.164Z,99122.39
2019-02-16T15:52:03.486Z,99115.31
2019-02-16T15:54:35.465Z,99115.53
2019-02-16T15:57:09.770Z,99120.69
2019-02-16T15:59:41.402Z,99109.52
2019-02-16T16:02:15.441Z,99105.08
2019-02-16T16:04:47.049Z,99108.16
2019-02-16T16:07:21.247Z,99109.34
2019-02-16T16:10:24.052Z,99110.72
2019-02-16T16:13:15.390Z,99110.22
2019-02-16T16:15:58.151Z,99110.77
2019-02-16T16:18:40.306Z,99113.94
2019-02-16T16:21:33.572Z,99106.00
2019-02-16T16:24:22.987Z,99116.08
2019-02-16T16:27:16.225Z,99116.61
2019-02-16T16:29:58.957Z,99114.52
2019-02-16T16:32:42.110Z,99116.36
2019-02-16T16:35:20.745Z,99116.89
2019-02-16T16:38:12.682Z,99114.89
2019-02-16T16:41:04.828Z,99114.80
2019-02-16T16:44:00.038Z,99112.07
2019-02-16T16:46:51.288Z,99114.11
2019-02-16T16:49:48.877Z,99119.28
2019-02-16T16:52:33.825Z,99117.13
2019-02-16T16:55:27.399Z,99120.91
2019-02-16T16:58:30.170Z,99126.03
2019-02-16T17:01:34.346Z,99125.04
2019-02-16T17:04:23.306Z,99123.46
2019-02-16T17:07:15.337Z,99123.42
2019-02-16T17:10:05.851Z,99124.30
2019-02-16T17:12:50.982Z,99133.61
2019-02-16T17:15:38.449Z,99129.97
2019-02-16T17:18:44.128Z,99132.36
2019-02-16T17:21:34.600Z,99130.58
2019-02-16T17:24:35.096Z,99140.55
2019-02-16T17:27:13.756Z,99142.03
2019-02-16T17:30:10.192Z,99152.09
2019-02-16T17:32:51.977Z,99154.03
2019-02-16T17:35:39.701Z,99153.96
2019-02-16T17:38:29.959Z,99147.95
2019-02-16T17:41:46.690Z,99147.37
2019-02-16T17:44:31.923Z,99148.52
2019-02-16T17:47:12.396Z,99151.46
2019-02-16T17:50:02.960Z,99161.59
2019-02-16T17:53:08.553Z,99163.92
2019-02-16T17:56:03.659Z,99161.42
2019-02-16T17:58:57.188Z,99158.73
2019-02-16T18:01:52.367Z,99163.30
2019-02-16T18:04:44.968Z,99172.14
2019-02-16T18:07:44.635Z,99173.17
2019-02-16T18:10:31.380Z,99170.61
2019-02-16T18:13:11.147Z,99173.85
2019-02-16T18:15:54.929Z,99171.47
2019-02-16T18:18:48.524Z,99173.63
2019-02-16T18:21:26.758Z,99171.05
2019-02-16T18:24:29.138Z,99170.13
2019-02-16T18:27:39.345Z,99170.19
2019-02-16T18:30:35.946Z,99170.96
2019-02-16T18:33:20.697Z,99167.50
2019-02-16T18:36:09.594Z,99155.46
2019-02-16T18:39:10.519Z,99154.10
2019-02-16T18:41:59.850Z,99152.09
2019-02-16T18:45:02.580Z,99146.81
2019-02-16T18:48:08.408Z,99150.46
2019-02-16T18:50:57.940Z,99146.09
2019-02-16T18:53:48.521Z,99143.80
2019-02-16T18:56:35.573Z,99141.00
2019-02-16T18:59:15.523Z,99140.66
2019-02-16T19:02:09.144Z,99139.78
2019-02-16T19:04:52.577Z,99138.89
2019-02-16T19:07:49.348Z,99139.56
2019-02-16T19:10:30.748Z,99137.74
2019-02-16T19:16:12.151Z,99141.82
2019-02-16T19:18:58.459Z,99134.78
2019-02-16T19:21:47.288Z,99145.85
2019-02-16T19:24:40.063Z,99136.95
2019-02-16T19:27:26.442Z,99140.55
2019-02-16T19:30:16.829Z,99140.88
2019-02-16T19:33:19.726Z,99147.17
2019-02-16T19:36:25.671Z,99139.17
2019-02-16T19:39:31.579Z,99133.93
2019-02-16T19:42:23.977Z,99138.45
2019-02-16T19:45:13.195Z,99141.53
2019-02-16T19:47:59.126Z,99132.94
2019-02-16T19:50:48.814Z,99134.43
2019-02-16T19:53:45.091Z,99133.02
2019-02-16T19:56:50.945Z,99128.05
2019-02-16T19:59:50.787Z,99132.79
2019-02-16T20:02:28.435Z,99129.33
2019-02-16T20:05:24.934Z,99123.59
2019-02-16T20:08:15.493Z,99119.84
2019-02-16T20:10:58.386Z,99123.13
2019-02-16T20:13:49.843Z,99118.30
2019-02-16T20:16:30.065Z,99122.50
2019-02-16T20:19:22.532Z,99124.91
2019-02-16T20:22:12.975Z,99121.69
2019-02-16T20:25:15.431Z,99125.98
2019-02-16T20:28:05.907Z,99121.16
2019-02-16T20:31:05.673Z,99125.69
2019-02-16T20:33:56.164Z,99124.56
2019-02-16T20:36:51.403Z,99124.09
2019-02-16T20:39:50.990Z,99119.97
2019-02-16T20:42:56.760Z,99115.36
2019-02-16T20:45:40.389Z,99110.45
2019-02-16T20:48:46.984Z,99117.63
2019-02-16T20:51:48.908Z,99114.86
2019-02-16T20:54:30.942Z,99115.70
2019-02-16T20:57:10.370Z,99118.09
2019-02-16T20:59:49.714Z,99115.26
2019-02-16T21:02:52.147Z,99117.19
2019-02-16T21:05:45.688Z,99114.24
2019-02-16T21:08:42.473Z,99118.76
2019-02-16T21:11:48.330Z,99118.04
2019-02-16T21:14:39.526Z,99119.04
2019-02-16T21:17:32.759Z,99118.26
2019-02-16T21:20:35.623Z,99118.07
2019-02-16T21:23:35.948Z,99116.53
2019-02-16T21:26:36.604Z,99118.50
2019-02-16T21:29:20.424Z,99119.13
2019-02-16T21:32:05.057Z,99114.21
2019-02-16T21:34:47.156Z,99113.43
2019-02-16T21:37:43.447Z,99116.55
2019-02-16T21:40:30.339Z,99112.72
2019-02-16T21:43:20.556Z,99114.73
2019-02-16T21:46:09.721Z,99111.36
2019-02-16T21:48:46.975Z,99109.36
2019-02-16T21:51:42.801Z,99110.38
2019-02-16T21:54:34.802Z,99105.00
2019-02-16T21:57:19.515Z,99103.41
2019-02-16T22:00:06.287Z,99100.92
2019-02-16T22:03:05.935Z,99100.59
2019-02-16T22:05:54.676Z,99098.99
2019-02-16T22:08:51.000Z,99101.25
2019-02-16T22:11:44.285Z,99095.79
2019-02-16T22:14:15.929Z,99095.94
2019-02-16T22:16:47.518Z,99091.55
2019-02-16T22:19:19.319Z,99087.92
2019-02-16T22:21:50.927Z,99091.95
2019-02-16T22:24:22.631Z,99084.09
2019-02-16T22:26:54.266Z,99089.03
2019-02-16T22:29:25.910Z,99084.95
2019-02-16T22:31:58.676Z,99085.50
2019-02-16T22:34:30.448Z,99082.50
2019-02-16T22:37:02.015Z,99083.62
2019-02-16T22:39:33.646Z,99078.97
2019-02-16T22:42:06.322Z,99076.00
2019-02-16T22:44:37.956Z,99078.28
2019-02-16T22:47:09.501Z,99078.73
2019-02-16T22:49:42.383Z,99084.05
2019-02-16T22:52:13.946Z,99084.57
2019-02-16T22:54:48.455Z,99089.41
2019-02-16T22:57:21.204Z,99084.47
2019-02-16T22:59:52.778Z,99088.45
2019-02-16T23:02:24.648Z,99083.46
2019-02-16T23:04:56.217Z,99085.64
2019-02-16T23:07:27.929Z,99087.44
2019-02-16T23:09:59.560Z,99090.80
2019-02-16T23:12:31.389Z,99089.61
2019-02-16T23:15:02.980Z,99097.54
2019-02-16T23:17:35.774Z,99109.49
2019-02-16T23:20:28.290Z,99098.78
2019-02-16T23:22:59.908Z,99097.16
2019-02-16T23:25:31.502Z,99096.56
2019-02-16T23:28:03.364Z,99094.48
2019-02-16T23:30:35.203Z,99097.44
2019-02-16T23:33:06.826Z,99095.91
2019-02-16T23:35:38.678Z,99096.83
2019-02-16T23:38:10.557Z,99096.84
2019-02-16T23:40:42.118Z,99087.41
2019-02-16T23:43:13.711Z,99086.20
2019-02-16T23:45:45.586Z,99086.70
2019-02-16T23:48:17.462Z,99092.87
2019-02-16T23:50:49.312Z,99085.50
2019-02-16T23:53:21.391Z,99093.29
2019-02-16T23:55:53.233Z,99092.08
2019-02-16T23:58:25.245Z,99092.54
